»·PEaware :: N275ND KBUR-KLAS

N275ND :: KBUR-KLAS

FLIGHT INFORMATION

Flight Status: Arrived
Operator: Privately registered:
United States
More flights under this callsign
Pilot: John A. (19135)
Aircraft: CESSNA 172 SKYHAWK
(C172)
More flights by this aircraft type
Origin: KBUR Bob Hope-Burbank
United States
Destination: KLAS McCarran Intl
United States
More flights between these airports :: More routes between these airports
Route: +VNY3 DAG CRESO4 KLAS
File this flight plan on PilotEdge
Remarks: I-5 Rating
Altitude:
(Current/Filed)
11,000ft
Speed:
(Current/Filed)
120kts
Departed: 05-Aug-19 09:34 AM
Arrived: 05-Aug-19 11:42 AM
Distance/Time
Traveled:
194nm/2:08
Distance/Time
To Go:
Arrived

Flight Plot

Page will automatically refresh every two minutes.

Flight plan parsing failed; only flown route is shown


Map Options




Map Legend


Flown Route
Filed Route
Departure Airport
Arrival Airport
Navaid (VOR, NDB)
Fix

Horizontal Profiles

Position Reports

Time Latitude Longitude Heading Altitude Ground
Speed
05-Aug-19 09:17 34.196339 -118.367564 358 780ft 0kts
05-Aug-19 09:18 34.196339 -118.367564 358 780ft 0kts
05-Aug-19 09:19 34.196339 -118.367564 358 780ft 0kts
05-Aug-19 09:20 34.196339 -118.367564 358 780ft 0kts
05-Aug-19 09:21 34.196339 -118.367564 358 780ft 0kts
05-Aug-19 09:22 34.196339 -118.367564 358 780ft 0kts
05-Aug-19 09:23 34.196339 -118.367564 358 780ft 0kts
05-Aug-19 09:24 34.196339 -118.367564 358 780ft 0kts
05-Aug-19 09:25 34.196339 -118.367564 358 780ft 0kts
05-Aug-19 09:26 34.196339 -118.367564 358 780ft 0kts
05-Aug-19 09:27 34.196411 -118.367566 358 780ft 0kts
05-Aug-19 09:28 34.196970 -118.368045 269 780ft 8kts
05-Aug-19 09:29 34.197060 -118.368890 326 780ft 0kts
05-Aug-19 09:30 34.197060 -118.368890 326 780ft 0kts
05-Aug-19 09:31 34.197060 -118.368890 326 780ft 0kts
05-Aug-19 09:32 34.197912 -118.368556 94 780ft 0kts
05-Aug-19 09:33 34.194436 -118.351662 151 1303ft 70kts
05-Aug-19 09:34 34.178538 -118.366651 217 2100ft 79kts
05-Aug-19 09:35 34.162495 -118.385219 216 2919ft 81kts
05-Aug-19 09:36 34.146472 -118.403861 221 3684ft 82kts
05-Aug-19 09:37 34.146996 -118.420655 3 4324ft 90kts
05-Aug-19 09:38 34.172066 -118.423081 353 5012ft 92kts
05-Aug-19 09:39 34.197149 -118.426807 338 5674ft 92kts
05-Aug-19 09:40 34.222216 -118.433331 351 6291ft 92kts
05-Aug-19 09:41 34.247618 -118.439407 348 6871ft 93kts
05-Aug-19 09:42 34.273527 -118.443697 350 7411ft 94kts
05-Aug-19 09:43 34.299680 -118.447656 351 7914ft 96kts
05-Aug-19 09:44 34.325968 -118.451513 0 8431ft 92kts
05-Aug-19 09:45 34.352420 -118.456809 349 8865ft 95kts
05-Aug-19 09:46 34.379222 -118.459868 16 9259ft 98kts
05-Aug-19 09:47 34.397535 -118.435789 48 9670ft 97kts
05-Aug-19 09:48 34.414267 -118.409460 57 10042ft 98kts
05-Aug-19 09:49 34.430512 -118.382516 63 10394ft 99kts
05-Aug-19 09:50 34.445029 -118.353895 53 10732ft 99kts
05-Aug-19 09:51 34.464166 -118.328209 53 10968ft 105kts
05-Aug-19 09:52 34.482570 -118.297518 52 10990ft 120kts
05-Aug-19 09:53 34.503000 -118.263825 51 10896ft 125kts
05-Aug-19 09:54 34.525137 -118.231172 52 10830ft 125kts
05-Aug-19 09:56 34.545545 -118.196907 58 10778ft 125kts
05-Aug-19 09:57 34.564789 -118.164599 56 10935ft 113kts
05-Aug-19 09:58 34.583529 -118.133035 53 10894ft 126kts
05-Aug-19 09:59 34.604540 -118.099819 41 10868ft 124kts
05-Aug-19 10:00 34.627613 -118.068778 61 10821ft 124kts
05-Aug-19 10:01 34.635272 -118.028470 84 10838ft 120kts
05-Aug-19 10:02 34.640078 -117.988189 83 10869ft 122kts
05-Aug-19 10:03 34.644388 -117.947846 83 10929ft 120kts
05-Aug-19 10:04 34.648986 -117.907599 86 10970ft 120kts
05-Aug-19 10:05 34.652949 -117.867039 86 11007ft 120kts
05-Aug-19 10:06 34.656878 -117.826157 87 10962ft 124kts
05-Aug-19 10:07 34.661257 -117.784246 82 10903ft 125kts
05-Aug-19 10:08 34.669293 -117.743464 73 10840ft 126kts
05-Aug-19 10:09 34.678878 -117.699310 76 10017ft 130kts
05-Aug-19 10:10 34.688580 -117.659461 67 9916ft 110kts
05-Aug-19 10:11 34.699424 -117.623620 73 9926ft 128kts
05-Aug-19 10:12 34.708382 -117.582399 81 9893ft 126kts
05-Aug-19 10:13 34.720545 -117.543477 74 9911ft 123kts
05-Aug-19 10:13 34.728434 -117.510274 75 9909ft 124kts
05-Aug-19 10:15 34.740663 -117.463338 72 9902ft 124kts
05-Aug-19 10:16 34.750473 -117.422974 73 9898ft 124kts
05-Aug-19 10:16 34.759135 -117.389614 71 9895ft 124kts
05-Aug-19 10:18 34.770784 -117.342485 75 9895ft 124kts
05-Aug-19 10:19 34.781187 -117.302402 70 9890ft 124kts
05-Aug-19 10:19 34.790054 -117.269120 74 9879ft 125kts
05-Aug-19 10:20 34.799091 -117.228485 70 9885ft 124kts
05-Aug-19 10:22 34.811500 -117.181792 63 9871ft 125kts
05-Aug-19 10:22 34.820793 -117.148617 73 9882ft 124kts
05-Aug-19 10:23 34.830173 -117.108154 73 9886ft 124kts
05-Aug-19 10:24 34.840491 -117.068101 72 9892ft 124kts
05-Aug-19 10:25 34.849700 -117.027475 62 9844ft 128kts
05-Aug-19 10:26 34.860834 -116.987751 72 9892ft 123kts
05-Aug-19 10:27 34.871129 -116.947575 75 9885ft 124kts
05-Aug-19 10:28 34.881065 -116.907244 72 9887ft 124kts
05-Aug-19 10:29 34.891436 -116.867193 71 9895ft 124kts
05-Aug-19 10:30 34.901129 -116.826866 73 9907ft 124kts
05-Aug-19 10:31 34.911090 -116.786516 74 9909ft 124kts
05-Aug-19 10:32 34.921218 -116.746432 71 9922ft 124kts
05-Aug-19 10:33 34.930967 -116.706041 73 9925ft 124kts
05-Aug-19 10:34 34.940529 -116.665630 72 9933ft 124kts
05-Aug-19 10:35 34.950210 -116.625318 73 9945ft 124kts
05-Aug-19 10:36 34.959764 -116.584937 68 9952ft 124kts
05-Aug-19 10:37 34.976601 -116.548116 60 9959ft 124kts
05-Aug-19 10:38 34.994362 -116.512091 61 9965ft 124kts
05-Aug-19 10:39 35.009522 -116.474507 74 9959ft 125kts
05-Aug-19 10:40 35.025360 -116.437070 59 9962ft 124kts
05-Aug-19 10:41 35.041220 -116.399756 58 9982ft 124kts
05-Aug-19 10:42 35.058149 -116.363162 62 9996ft 124kts
05-Aug-19 10:43 35.074522 -116.326034 65 10004ft 124kts
05-Aug-19 10:44 35.090042 -116.288437 60 9989ft 125kts
05-Aug-19 10:45 35.106164 -116.251261 62 10018ft 124kts
05-Aug-19 10:46 35.123073 -116.213329 57 9913ft 128kts
05-Aug-19 10:47 35.140146 -116.175106 61 9820ft 128kts
05-Aug-19 10:48 35.156413 -116.137464 61 9913ft 117kts
05-Aug-19 10:49 35.171544 -116.101773 61 10006ft 121kts
05-Aug-19 10:50 35.188120 -116.064101 59 9944ft 123kts
05-Aug-19 10:51 35.205734 -116.027497 60 9920ft 125kts
05-Aug-19 10:52 35.221790 -115.989864 65 9918ft 125kts
05-Aug-19 10:53 35.238627 -115.952791 62 9916ft 125kts
05-Aug-19 10:54 35.255208 -115.915537 61 9903ft 125kts
05-Aug-19 10:55 35.271511 -115.878095 65 9907ft 125kts
05-Aug-19 10:56 35.287792 -115.840759 63 9908ft 124kts
05-Aug-19 10:57 35.304721 -115.803667 60 9908ft 125kts
05-Aug-19 10:58 35.324302 -115.769019 43 9905ft 124kts
05-Aug-19 10:59 35.347760 -115.737792 53 9768ft 124kts
05-Aug-19 11:00 35.369349 -115.704666 48 9087ft 126kts
05-Aug-19 11:01 35.391413 -115.671977 43 8510ft 130kts
05-Aug-19 11:02 35.417103 -115.642593 50 8083ft 122kts
05-Aug-19 11:03 35.438088 -115.613827 40 8125ft 107kts
05-Aug-19 11:04 35.457896 -115.585441 46 8150ft 116kts
05-Aug-19 11:05 35.479415 -115.556683 36 8166ft 116kts
05-Aug-19 11:06 35.503422 -115.531319 45 8221ft 113kts
05-Aug-19 11:07 35.524174 -115.501773 54 8235ft 114kts
05-Aug-19 11:08 35.545379 -115.473221 47 8245ft 115kts
05-Aug-19 11:09 35.566537 -115.442873 50 8160ft 121kts
05-Aug-19 11:10 35.589633 -115.412663 46 8021ft 122kts
05-Aug-19 11:11 35.613522 -115.381708 49 7766ft 127kts
05-Aug-19 11:12 35.635656 -115.348004 50 7533ft 126kts
05-Aug-19 11:13 35.657216 -115.313994 49 7313ft 126kts
05-Aug-19 11:14 35.680518 -115.281924 48 7112ft 125kts
05-Aug-19 11:15 35.700586 -115.247085 55 6852ft 131kts
05-Aug-19 11:16 35.720461 -115.216097 50 7036ft 117kts
05-Aug-19 11:17 35.742038 -115.185732 51 7030ft 114kts
05-Aug-19 11:18 35.763172 -115.155910 47 7059ft 114kts
05-Aug-19 11:19 35.783771 -115.125673 48 7093ft 115kts
05-Aug-19 11:20 35.804129 -115.094951 51 7149ft 114kts
05-Aug-19 11:21 35.823848 -115.061775 53 6920ft 128kts
05-Aug-19 11:22 35.843614 -115.030845 50 6925ft 112kts
05-Aug-19 11:23 35.864221 -115.001040 50 6906ft 119kts
05-Aug-19 11:24 35.888012 -114.974535 43 7019ft 113kts
05-Aug-19 11:25 35.910154 -114.947155 46 7066ft 117kts
05-Aug-19 11:26 35.932533 -114.917044 45 6991ft 119kts
05-Aug-19 11:27 35.948612 -114.899475 35 6946ft 120kts
05-Aug-19 11:28 35.971756 -114.873205 33 6914ft 119kts
05-Aug-19 11:29 36.002293 -114.857331 19 6732ft 121kts
05-Aug-19 11:30 36.031253 -114.837536 38 6481ft 119kts
05-Aug-19 11:31 36.059148 -114.821446 351 6234ft 118kts
05-Aug-19 11:32 36.080451 -114.838983 248 6171ft 111kts
05-Aug-19 11:33 36.074942 -114.876363 284 6091ft 116kts
05-Aug-19 11:34 36.080728 -114.912401 251 5805ft 93kts
05-Aug-19 11:35 36.077968 -114.945694 267 5208ft 96kts
05-Aug-19 11:36 36.076266 -114.978795 269 4681ft 99kts
05-Aug-19 11:37 36.078078 -115.012602 263 4115ft 98kts
05-Aug-19 11:38 36.079021 -115.045960 275 3581ft 98kts
05-Aug-19 11:39 36.076964 -115.079427 253 3067ft 98kts
05-Aug-19 11:40 36.076878 -115.108542 263 2487ft 70kts
05-Aug-19 11:41 36.076481 -115.132112 268 2185ft 40kts
05-Aug-19 11:42 36.080021 -115.134825 320 2185ft 8kts

Navigation Log

Ident Type
Flight plan parsing failed, navigation log unavailable